sensor_id;sensor_type;location;lat;lon;timestamp;pressure;altitude;pressure_sealevel;temperature;humidity
32131;BME280;18639;50.716;7.086;2022-07-29T00:01:16;100284.91;;;18.79;75.40
32131;BME280;18639;50.716;7.086;2022-07-29T00:03:41;100287.22;;;18.82;75.81
32131;BME280;18639;50.716;7.086;2022-07-29T00:06:07;100288.53;;;18.86;75.80
32131;BME280;18639;50.716;7.086;2022-07-29T00:08:32;100267.34;;;18.72;76.00
32131;BME280;18639;50.716;7.086;2022-07-29T00:10:57;100277.66;;;18.73;76.30
32131;BME280;18639;50.716;7.086;2022-07-29T00:13:23;100283.56;;;18.75;76.38
32131;BME280;18639;50.716;7.086;2022-07-29T00:15:48;100284.22;;;18.77;76.19
32131;BME280;18639;50.716;7.086;2022-07-29T00:18:13;100288.50;;;18.78;76.63
32131;BME280;18639;50.716;7.086;2022-07-29T00:20:38;100285.16;;;18.68;76.49
32131;BME280;18639;50.716;7.086;2022-07-29T00:23:04;100269.09;;;18.63;76.49
32131;BME280;18639;50.716;7.086;2022-07-29T00:25:29;100282.22;;;18.71;76.72
32131;BME280;18639;50.716;7.086;2022-07-29T00:27:54;100267.81;;;18.67;77.32
32131;BME280;18639;50.716;7.086;2022-07-29T00:30:20;100269.44;;;18.68;77.58
32131;BME280;18639;50.716;7.086;2022-07-29T00:32:45;100262.72;;;18.66;77.28
32131;BME280;18639;50.716;7.086;2022-07-29T00:35:10;100271.88;;;18.70;77.49
32131;BME280;18639;50.716;7.086;2022-07-29T00:37:54;100256.13;;;18.62;76.80
32131;BME280;18639;50.716;7.086;2022-07-29T00:40:19;100253.66;;;18.60;77.33
32131;BME280;18639;50.716;7.086;2022-07-29T00:42:46;100262.88;;;18.64;77.47
32131;BME280;18639;50.716;7.086;2022-07-29T00:45:13;100251.38;;;18.57;77.74
32131;BME280;18639;50.716;7.086;2022-07-29T00:47:39;100261.53;;;18.60;77.62
32131;BME280;18639;50.716;7.086;2022-07-29T00:50:06;100243.72;;;18.46;77.74
32131;BME280;18639;50.716;7.086;2022-07-29T00:52:33;100260.47;;;18.53;77.74
32131;BME280;18639;50.716;7.086;2022-07-29T00:55:00;100215.63;;;18.30;78.07
32131;BME280;18639;50.716;7.086;2022-07-29T00:57:27;100237.66;;;18.45;78.07
32131;BME280;18639;50.716;7.086;2022-07-29T00:59:52;100237.31;;;18.40;78.40
32131;BME280;18639;50.716;7.086;2022-07-29T01:02:17;100219.38;;;18.28;78.91
32131;BME280;18639;50.716;7.086;2022-07-29T01:04:42;100229.91;;;18.36;79.64
32131;BME280;18639;50.716;7.086;2022-07-29T01:07:08;100212.13;;;18.22;79.38
32131;BME280;18639;50.716;7.086;2022-07-29T01:09:35;100231.47;;;18.29;78.92
32131;BME280;18639;50.716;7.086;2022-07-29T01:12:02;100247.19;;;18.29;78.69
32131;BME280;18639;50.716;7.086;2022-07-29T01:14:28;100215.03;;;18.19;79.00
32131;BME280;18639;50.716;7.086;2022-07-29T01:17:02;100234.03;;;18.21;78.95
32131;BME280;18639;50.716;7.086;2022-07-29T01:25:20;100227.25;;;18.10;79.87
32131;BME280;18639;50.716;7.086;2022-07-29T01:30:44;100198.09;;;17.87;80.23
32131;BME280;18639;50.716;7.086;2022-07-29T01:33:11;100205.34;;;17.93;79.98
32131;BME280;18639;50.716;7.086;2022-07-29T01:36:01;100198.16;;;17.95;79.89
32131;BME280;18639;50.716;7.086;2022-07-29T01:38:28;100206.38;;;18.00;79.83
32131;BME280;18639;50.716;7.086;2022-07-29T01:41:12;100207.06;;;18.02;80.39
32131;BME280;18639;50.716;7.086;2022-07-29T01:46:20;100215.97;;;18.09;80.57
32131;BME280;18639;50.716;7.086;2022-07-29T01:48:53;100202.75;;;17.93;80.23
32131;BME280;18639;50.716;7.086;2022-07-29T01:51:33;100198.84;;;17.97;79.92
32131;BME280;18639;50.716;7.086;2022-07-29T01:54:13;100207.19;;;18.01;80.36
32131;BME280;18639;50.716;7.086;2022-07-29T01:56:40;100202.06;;;17.91;80.52
32131;BME280;18639;50.716;7.086;2022-07-29T01:59:09;100183.38;;;17.86;80.65
32131;BME280;18639;50.716;7.086;2022-07-29T02:01:35;100195.84;;;17.92;80.99
32131;BME280;18639;50.716;7.086;2022-07-29T02:04:06;100177.09;;;17.79;81.16
32131;BME280;18639;50.716;7.086;2022-07-29T02:06:36;100182.31;;;17.79;81.97
32131;BME280;18639;50.716;7.086;2022-07-29T02:09:03;100192.78;;;17.79;82.18
32131;BME280;18639;50.716;7.086;2022-07-29T02:11:31;100177.25;;;17.60;82.17
32131;BME280;18639;50.716;7.086;2022-07-29T02:13:59;100193.81;;;17.68;82.67
32131;BME280;18639;50.716;7.086;2022-07-29T02:16:26;100164.94;;;17.43;82.39
32131;BME280;18639;50.716;7.086;2022-07-29T02:18:55;100179.59;;;17.53;82.23
32131;BME280;18639;50.716;7.086;2022-07-29T02:21:24;100180.84;;;17.49;83.08
32131;BME280;18639;50.716;7.086;2022-07-29T02:23:52;100178.69;;;17.45;83.00
32131;BME280;18639;50.716;7.086;2022-07-29T02:26:20;100192.72;;;17.44;83.19
32131;BME280;18639;50.716;7.086;2022-07-29T02:28:48;100185.38;;;17.30;83.36
32131;BME280;18639;50.716;7.086;2022-07-29T02:31:15;100197.47;;;17.31;83.41
32131;BME280;18639;50.716;7.086;2022-07-29T02:33:42;100197.06;;;17.25;83.52
32131;BME280;18639;50.716;7.086;2022-07-29T02:36:09;100181.63;;;17.14;83.76
32131;BME280;18639;50.716;7.086;2022-07-29T02:38:35;100203.84;;;17.18;83.83
32131;BME280;18639;50.716;7.086;2022-07-29T02:44:13;100206.34;;;17.10;84.02
32131;BME280;18639;50.716;7.086;2022-07-29T02:46:43;100208.31;;;17.08;84.07
32131;BME280;18639;50.716;7.086;2022-07-29T02:52:52;100202.25;;;17.08;84.56
32131;BME280;18639;50.716;7.086;2022-07-29T02:58:02;100186.34;;;17.01;84.69
32131;BME280;18639;50.716;7.086;2022-07-29T03:00:30;100198.69;;;17.09;84.17
32131;BME280;18639;50.716;7.086;2022-07-29T03:02:59;100196.47;;;17.04;84.22
32131;BME280;18639;50.716;7.086;2022-07-29T03:05:27;100205.84;;;17.07;84.31
32131;BME280;18639;50.716;7.086;2022-07-29T03:07:58;100206.78;;;17.06;84.02
32131;BME280;18639;50.716;7.086;2022-07-29T03:10:26;100191.03;;;16.98;84.11
32131;BME280;18639;50.716;7.086;2022-07-29T03:12:51;100170.47;;;16.85;84.24
32131;BME280;18639;50.716;7.086;2022-07-29T03:15:18;100205.53;;;17.10;84.18
32131;BME280;18639;50.716;7.086;2022-07-29T03:17:44;100191.31;;;16.95;84.12
32131;BME280;18639;50.716;7.086;2022-07-29T03:20:11;100207.22;;;17.01;85.05
32131;BME280;18639;50.716;7.086;2022-07-29T03:22:42;100172.72;;;16.70;85.47
32131;BME280;18639;50.716;7.086;2022-07-29T03:25:10;100210.13;;;16.98;85.38
32131;BME280;18639;50.716;7.086;2022-07-29T03:27:35;100187.53;;;16.79;85.64
32131;BME280;18639;50.716;7.086;2022-07-29T03:30:00;100220.56;;;16.98;85.26
32131;BME280;18639;50.716;7.086;2022-07-29T03:32:26;100204.34;;;16.95;84.87
32131;BME280;18639;50.716;7.086;2022-07-29T03:34:51;100208.53;;;16.88;85.16
32131;BME280;18639;50.716;7.086;2022-07-29T03:37:16;100201.78;;;16.85;85.19
32131;BME280;18639;50.716;7.086;2022-07-29T03:39:42;100200.13;;;16.84;85.63
32131;BME280;18639;50.716;7.086;2022-07-29T03:42:11;100214.81;;;16.95;85.67
32131;BME280;18639;50.716;7.086;2022-07-29T03:44:41;100194.34;;;16.90;85.88
32131;BME280;18639;50.716;7.086;2022-07-29T03:47:09;100201.09;;;16.93;85.73
32131;BME280;18639;50.716;7.086;2022-07-29T03:49:37;100192.56;;;16.91;85.49
32131;BME280;18639;50.716;7.086;2022-07-29T03:52:04;100168.59;;;16.68;85.66
32131;BME280;18639;50.716;7.086;2022-07-29T03:54:30;100197.75;;;17.00;86.10
32131;BME280;18639;50.716;7.086;2022-07-29T03:56:57;100198.44;;;17.02;86.19
32131;BME280;18639;50.716;7.086;2022-07-29T03:59:24;100200.66;;;16.97;86.19
32131;BME280;18639;50.716;7.086;2022-07-29T04:01:52;100202.00;;;17.01;85.98
32131;BME280;18639;50.716;7.086;2022-07-29T04:04:18;100182.81;;;16.83;86.10
32131;BME280;18639;50.716;7.086;2022-07-29T04:06:45;100203.91;;;16.99;86.13
32131;BME280;18639;50.716;7.086;2022-07-29T04:09:11;100207.75;;;17.05;86.22
32131;BME280;18639;50.716;7.086;2022-07-29T04:11:39;100206.34;;;17.10;86.09
32131;BME280;18639;50.716;7.086;2022-07-29T04:14:05;100204.03;;;17.07;86.02
32131;BME280;18639;50.716;7.086;2022-07-29T04:16:30;100220.94;;;17.13;85.90
32131;BME280;18639;50.716;7.086;2022-07-29T04:18:55;100212.41;;;17.11;85.53
32131;BME280;18639;50.716;7.086;2022-07-29T04:21:21;100205.84;;;17.07;85.67
32131;BME280;18639;50.716;7.086;2022-07-29T04:23:46;100210.22;;;17.06;85.93
32131;BME280;18639;50.716;7.086;2022-07-29T04:26:18;100225.19;;;17.14;85.84
32131;BME280;18639;50.716;7.086;2022-07-29T04:28:44;100225.31;;;17.12;85.84
32131;BME280;18639;50.716;7.086;2022-07-29T04:31:10;100234.50;;;17.16;86.16
32131;BME280;18639;50.716;7.086;2022-07-29T04:33:36;100227.50;;;17.17;85.96
32131;BME280;18639;50.716;7.086;2022-07-29T04:36:01;100228.47;;;17.16;86.29
32131;BME280;18639;50.716;7.086;2022-07-29T04:38:26;100242.84;;;17.30;86.41
32131;BME280;18639;50.716;7.086;2022-07-29T04:40:52;100247.25;;;17.29;86.12
32131;BME280;18639;50.716;7.086;2022-07-29T04:43:17;100251.66;;;17.29;86.25
32131;BME280;18639;50.716;7.086;2022-07-29T04:45:42;100238.47;;;17.20;86.49
32131;BME280;18639;50.716;7.086;2022-07-29T04:48:08;100253.13;;;17.31;86.41
32131;BME280;18639;50.716;7.086;2022-07-29T04:50:34;100245.59;;;17.28;86.63
32131;BME280;18639;50.716;7.086;2022-07-29T04:52:59;100246.81;;;17.34;86.57
32131;BME280;18639;50.716;7.086;2022-07-29T04:55:24;100240.91;;;17.32;86.53
32131;BME280;18639;50.716;7.086;2022-07-29T04:57:50;100252.13;;;17.42;86.49
32131;BME280;18639;50.716;7.086;2022-07-29T05:00:16;100241.16;;;17.38;86.16
32131;BME280;18639;50.716;7.086;2022-07-29T05:02:41;100196.47;;;17.14;85.78
32131;BME280;18639;50.716;7.086;2022-07-29T05:05:09;100161.63;;;16.96;85.49
32131;BME280;18639;50.716;7.086;2022-07-29T05:07:38;100176.66;;;17.11;85.38
32131;BME280;18639;50.716;7.086;2022-07-29T05:10:32;100268.97;;;17.84;85.29
32131;BME280;18639;50.716;7.086;2022-07-29T05:13:05;100177.56;;;17.30;84.84
32131;BME280;18639;50.716;7.086;2022-07-29T05:15:32;100240.53;;;17.81;84.19
32131;BME280;18639;50.716;7.086;2022-07-29T05:17:58;100214.69;;;17.78;84.25
32131;BME280;18639;50.716;7.086;2022-07-29T05:20:23;100268.41;;;18.26;83.42
32131;BME280;18639;50.716;7.086;2022-07-29T05:22:53;100278.94;;;18.34;82.39
32131;BME280;18639;50.716;7.086;2022-07-29T05:25:18;100246.94;;;18.22;82.33
32131;BME280;18639;50.716;7.086;2022-07-29T05:27:44;100278.13;;;18.51;82.79
32131;BME280;18639;50.716;7.086;2022-07-29T05:30:09;100274.25;;;18.55;82.51
32131;BME280;18639;50.716;7.086;2022-07-29T05:32:35;100258.16;;;18.50;82.56
32131;BME280;18639;50.716;7.086;2022-07-29T05:35:00;100293.38;;;18.73;83.31
32131;BME280;18639;50.716;7.086;2022-07-29T05:37:25;100288.97;;;18.74;83.42
32131;BME280;18639;50.716;7.086;2022-07-29T05:39:51;100284.84;;;18.71;82.74
32131;BME280;18639;50.716;7.086;2022-07-29T05:42:32;100266.25;;;18.57;80.17
32131;BME280;18639;50.716;7.086;2022-07-29T05:45:07;100219.81;;;18.23;80.25
32131;BME280;18639;50.716;7.086;2022-07-29T05:47:39;100254.19;;;18.46;79.46
32131;BME280;18639;50.716;7.086;2022-07-29T05:50:05;100255.63;;;18.40;78.90
32131;BME280;18639;50.716;7.086;2022-07-29T05:52:33;100340.63;;;18.89;79.35
32131;BME280;18639;50.716;7.086;2022-07-29T05:55:01;100329.94;;;18.83;79.22
32131;BME280;18639;50.716;7.086;2022-07-29T05:57:46;100269.81;;;18.38;77.36
32131;BME280;18639;50.716;7.086;2022-07-29T06:00:12;100340.34;;;18.75;76.96
32131;BME280;18639;50.716;7.086;2022-07-29T06:02:37;100339.91;;;18.79;76.45
32131;BME280;18639;50.716;7.086;2022-07-29T06:05:05;100321.81;;;18.68;76.60
32131;BME280;18639;50.716;7.086;2022-07-29T06:08:10;100339.94;;;18.87;76.56
32131;BME280;18639;50.716;7.086;2022-07-29T06:10:47;100318.22;;;18.69;76.37
32131;BME280;18639;50.716;7.086;2022-07-29T06:13:26;100279.91;;;18.50;75.83
32131;BME280;18639;50.716;7.086;2022-07-29T06:16:00;100295.53;;;18.60;75.50
32131;BME280;18639;50.716;7.086;2022-07-29T06:18:43;100262.97;;;18.37;74.84
32131;BME280;18639;50.716;7.086;2022-07-29T06:21:10;100340.31;;;18.92;74.84
32131;BME280;18639;50.716;7.086;2022-07-29T06:23:39;100351.72;;;19.09;74.86
32131;BME280;18639;50.716;7.086;2022-07-29T06:26:05;100339.19;;;19.21;75.42
32131;BME280;18639;50.716;7.086;2022-07-29T06:28:31;100329.34;;;19.15;74.73
32131;BME280;18639;50.716;7.086;2022-07-29T06:30:56;100345.38;;;19.38;73.58
32131;BME280;18639;50.716;7.086;2022-07-29T06:33:22;100339.50;;;19.44;73.31
32131;BME280;18639;50.716;7.086;2022-07-29T06:35:47;100338.63;;;19.61;72.71
32131;BME280;18639;50.716;7.086;2022-07-29T06:38:16;100342.59;;;19.65;72.16
32131;BME280;18639;50.716;7.086;2022-07-29T06:40:42;100346.72;;;19.75;71.98
32131;BME280;18639;50.716;7.086;2022-07-29T06:46:05;100325.69;;;19.67;69.54
32131;BME280;18639;50.716;7.086;2022-07-29T06:48:33;100338.66;;;19.69;69.75
32131;BME280;18639;50.716;7.086;2022-07-29T06:50:59;100343.91;;;19.69;70.57
32131;BME280;18639;50.716;7.086;2022-07-29T06:53:25;100335.59;;;19.82;71.08
32131;BME280;18639;50.716;7.086;2022-07-29T06:55:51;100338.09;;;19.91;69.99
32131;BME280;18639;50.716;7.086;2022-07-29T06:58:17;100309.53;;;19.80;69.79
32131;BME280;18639;50.716;7.086;2022-07-29T07:00:45;100332.38;;;20.04;69.28
32131;BME280;18639;50.716;7.086;2022-07-29T07:03:11;100323.88;;;20.02;68.82
32131;BME280;18639;50.716;7.086;2022-07-29T07:05:36;100333.09;;;20.30;69.64
32131;BME280;18639;50.716;7.086;2022-07-29T07:08:02;100337.91;;;20.59;67.85
32131;BME280;18639;50.716;7.086;2022-07-29T07:10:27;100319.84;;;20.80;65.79
32131;BME280;18639;50.716;7.086;2022-07-29T07:12:53;100341.03;;;21.19;65.69
32131;BME280;18639;50.716;7.086;2022-07-29T07:15:18;100324.59;;;21.09;63.23
32131;BME280;18639;50.716;7.086;2022-07-29T07:17:47;100303.88;;;21.22;61.95
32131;BME280;18639;50.716;7.086;2022-07-29T07:20:13;100322.22;;;21.47;60.59
32131;BME280;18639;50.716;7.086;2022-07-29T07:22:38;100314.22;;;21.24;61.99
32131;BME280;18639;50.716;7.086;2022-07-29T07:25:04;100326.56;;;21.23;64.52
32131;BME280;18639;50.716;7.086;2022-07-29T07:27:33;100334.28;;;21.25;64.31
32131;BME280;18639;50.716;7.086;2022-07-29T07:29:58;100344.81;;;21.25;63.90
32131;BME280;18639;50.716;7.086;2022-07-29T07:32:23;100336.88;;;21.33;62.94
32131;BME280;18639;50.716;7.086;2022-07-29T07:34:49;100324.03;;;21.38;61.19
32131;BME280;18639;50.716;7.086;2022-07-29T07:37:14;100339.50;;;21.41;61.11
32131;BME280;18639;50.716;7.086;2022-07-29T07:39:40;100333.06;;;21.43;62.12
32131;BME280;18639;50.716;7.086;2022-07-29T07:42:05;100288.47;;;21.19;63.64
32131;BME280;18639;50.716;7.086;2022-07-29T07:44:31;100259.72;;;21.01;63.40
32131;BME280;18639;50.716;7.086;2022-07-29T07:46:56;100263.16;;;21.02;61.14
32131;BME280;18639;50.716;7.086;2022-07-29T07:49:40;100238.22;;;20.98;61.61
32131;BME280;18639;50.716;7.086;2022-07-29T07:52:12;100314.00;;;21.80;61.70
32131;BME280;18639;50.716;7.086;2022-07-29T07:54:37;100302.06;;;22.09;61.60
32131;BME280;18639;50.716;7.086;2022-07-29T07:57:35;100255.81;;;22.06;59.13
32131;BME280;18639;50.716;7.086;2022-07-29T08:00:29;100228.63;;;22.14;55.60
32131;BME280;18639;50.716;7.086;2022-07-29T08:02:58;100232.75;;;22.54;54.86
32131;BME280;18639;50.716;7.086;2022-07-29T08:05:35;100295.53;;;23.02;56.72
32131;BME280;18639;50.716;7.086;2022-07-29T08:08:03;100239.03;;;22.67;55.70
32131;BME280;18639;50.716;7.086;2022-07-29T08:10:29;100288.25;;;23.19;55.21
32131;BME280;18639;50.716;7.086;2022-07-29T08:13:16;100285.28;;;23.22;54.53
32131;BME280;18639;50.716;7.086;2022-07-29T08:15:41;100272.91;;;23.37;52.56
32131;BME280;18639;50.716;7.086;2022-07-29T08:18:08;100327.59;;;23.58;52.49
32131;BME280;18639;50.716;7.086;2022-07-29T08:20:35;100328.31;;;23.52;53.11
32131;BME280;18639;50.716;7.086;2022-07-29T08:23:01;100326.56;;;23.44;53.93
32131;BME280;18639;50.716;7.086;2022-07-29T08:25:27;100280.44;;;23.26;52.78
32131;BME280;18639;50.716;7.086;2022-07-29T08:27:52;100249.00;;;23.09;53.58
32131;BME280;18639;50.716;7.086;2022-07-29T08:30:23;100228.91;;;22.94;54.10
32131;BME280;18639;50.716;7.086;2022-07-29T08:33:27;100242.06;;;23.08;53.33
32131;BME280;18639;50.716;7.086;2022-07-29T08:35:56;100199.19;;;22.85;53.09
32131;BME280;18639;50.716;7.086;2022-07-29T08:38:27;100211.81;;;22.90;53.63
32131;BME280;18639;50.716;7.086;2022-07-29T08:40:52;100219.38;;;23.07;52.43
32131;BME280;18639;50.716;7.086;2022-07-29T08:43:18;100241.63;;;23.34;55.03
32131;BME280;18639;50.716;7.086;2022-07-29T08:45:53;100280.47;;;23.55;49.80
32131;BME280;18639;50.716;7.086;2022-07-29T08:48:25;100300.47;;;24.00;53.29
32131;BME280;18639;50.716;7.086;2022-07-29T08:50:55;100259.22;;;23.99;50.60
32131;BME280;18639;50.716;7.086;2022-07-29T08:53:21;100232.56;;;23.94;49.48
32131;BME280;18639;50.716;7.086;2022-07-29T08:55:49;100288.38;;;24.48;48.96
32131;BME280;18639;50.716;7.086;2022-07-29T08:58:15;100251.00;;;24.51;48.29
32131;BME280;18639;50.716;7.086;2022-07-29T09:00:45;100248.75;;;24.76;48.10
32131;BME280;18639;50.716;7.086;2022-07-29T09:03:18;100295.09;;;25.34;46.11
32131;BME280;18639;50.716;7.086;2022-07-29T09:05:47;100237.97;;;25.05;46.06
32131;BME280;18639;50.716;7.086;2022-07-29T09:08:16;100269.53;;;25.54;44.05
32131;BME280;18639;50.716;7.086;2022-07-29T09:10:45;100270.44;;;25.68;45.05
32131;BME280;18639;50.716;7.086;2022-07-29T09:13:10;100249.50;;;25.86;44.23
32131;BME280;18639;50.716;7.086;2022-07-29T09:15:35;100238.31;;;25.91;42.96
32131;BME280;18639;50.716;7.086;2022-07-29T09:18:03;100272.63;;;26.25;44.52
32131;BME280;18639;50.716;7.086;2022-07-29T09:20:28;100302.81;;;26.57;41.97
32131;BME280;18639;50.716;7.086;2022-07-29T09:23:13;100284.03;;;26.85;41.42
32131;BME280;18639;50.716;7.086;2022-07-29T09:25:40;100289.34;;;27.05;42.55
32131;BME280;18639;50.716;7.086;2022-07-29T09:28:11;100290.50;;;27.29;41.74
32131;BME280;18639;50.716;7.086;2022-07-29T09:30:57;100290.44;;;27.55;39.39
32131;BME280;18639;50.716;7.086;2022-07-29T09:33:33;100286.69;;;27.69;40.77
32131;BME280;18639;50.716;7.086;2022-07-29T09:36:07;100265.59;;;27.81;40.39
32131;BME280;18639;50.716;7.086;2022-07-29T09:38:36;100293.69;;;28.33;40.04
32131;BME280;18639;50.716;7.086;2022-07-29T09:41:05;100261.16;;;28.62;38.19
32131;BME280;18639;50.716;7.086;2022-07-29T09:43:32;100272.41;;;29.25;37.62
32131;BME280;18639;50.716;7.086;2022-07-29T09:46:12;100243.63;;;29.34;37.24
32131;BME280;18639;50.716;7.086;2022-07-29T09:49:05;100274.06;;;29.75;37.22
32131;BME280;18639;50.716;7.086;2022-07-29T09:51:23;100239.69;;;29.85;36.17
32131;BME280;18639;50.716;7.086;2022-07-29T09:53:53;100216.22;;;29.63;36.53
32131;BME280;18639;50.716;7.086;2022-07-29T09:56:40;100258.00;;;30.11;36.66
32131;BME280;18639;50.716;7.086;2022-07-29T09:59:08;100211.16;;;30.15;35.18
32131;BME280;18639;50.716;7.086;2022-07-29T10:01:34;100248.28;;;30.28;36.51
32131;BME280;18639;50.716;7.086;2022-07-29T10:04:06;100250.72;;;30.41;37.00
32131;BME280;18639;50.716;7.086;2022-07-29T10:06:31;100283.31;;;30.43;35.20
32131;BME280;18639;50.716;7.086;2022-07-29T10:09:12;100228.63;;;29.69;37.27
32131;BME280;18639;50.716;7.086;2022-07-29T10:11:37;100201.19;;;29.21;37.25
32131;BME280;18639;50.716;7.086;2022-07-29T10:14:41;100286.22;;;28.98;39.13
32131;BME280;18639;50.716;7.086;2022-07-29T10:17:25;100239.47;;;28.09;39.46
32131;BME280;18639;50.716;7.086;2022-07-29T10:19:55;100292.06;;;28.32;39.86
32131;BME280;18639;50.716;7.086;2022-07-29T10:22:21;100260.56;;;28.04;40.26
32131;BME280;18639;50.716;7.086;2022-07-29T10:24:54;100234.88;;;28.23;39.36
32131;BME280;18639;50.716;7.086;2022-07-29T10:27:25;100241.94;;;28.35;39.61
32131;BME280;18639;50.716;7.086;2022-07-29T10:29:56;100271.88;;;28.49;39.83
32131;BME280;18639;50.716;7.086;2022-07-29T10:38:20;100289.28;;;28.76;38.47
32131;BME280;18639;50.716;7.086;2022-07-29T10:44:05;100274.28;;;29.73;38.51
32131;BME280;18639;50.716;7.086;2022-07-29T10:46:39;100273.47;;;29.43;38.34
32131;BME280;18639;50.716;7.086;2022-07-29T10:49:23;100283.13;;;29.19;39.59
32131;BME280;18639;50.716;7.086;2022-07-29T10:57:28;100268.75;;;28.34;40.82
32131;BME280;18639;50.716;7.086;2022-07-29T11:04:58;100281.88;;;27.91;41.48
32131;BME280;18639;50.716;7.086;2022-07-29T11:07:25;100280.50;;;27.88;41.58
32131;BME280;18639;50.716;7.086;2022-07-29T11:15:11;100288.78;;;27.60;42.71
32131;BME280;18639;50.716;7.086;2022-07-29T11:20:44;100288.44;;;27.31;43.51
32131;BME280;18639;50.716;7.086;2022-07-29T11:23:18;100282.56;;;27.22;42.98
32131;BME280;18639;50.716;7.086;2022-07-29T11:25:45;100284.41;;;27.21;43.20
32131;BME280;18639;50.716;7.086;2022-07-29T11:28:16;100277.44;;;27.20;42.52
32131;BME280;18639;50.716;7.086;2022-07-29T11:30:50;100284.81;;;27.18;42.71
32131;BME280;18639;50.716;7.086;2022-07-29T11:33:34;100284.22;;;27.03;43.05
32131;BME280;18639;50.716;7.086;2022-07-29T11:36:09;100274.47;;;26.97;42.06
32131;BME280;18639;50.716;7.086;2022-07-29T11:38:36;100272.22;;;26.94;43.03
32131;BME280;18639;50.716;7.086;2022-07-29T11:43:47;100272.22;;;26.81;43.01
32131;BME280;18639;50.716;7.086;2022-07-29T11:46:13;100286.88;;;26.77;42.49
32131;BME280;18639;50.716;7.086;2022-07-29T11:48:42;100281.81;;;26.75;42.89
32131;BME280;18639;50.716;7.086;2022-07-29T11:51:11;100280.78;;;26.70;44.30
32131;BME280;18639;50.716;7.086;2022-07-29T11:53:37;100288.34;;;26.60;43.45
32131;BME280;18639;50.716;7.086;2022-07-29T11:56:03;100286.50;;;26.67;43.06
32131;BME280;18639;50.716;7.086;2022-07-29T11:58:30;100279.19;;;26.49;43.63
32131;BME280;18639;50.716;7.086;2022-07-29T12:00:56;100283.84;;;26.54;44.23
32131;BME280;18639;50.716;7.086;2022-07-29T12:03:28;100283.25;;;26.58;42.02
32131;BME280;18639;50.716;7.086;2022-07-29T12:05:54;100284.66;;;26.48;43.70
32131;BME280;18639;50.716;7.086;2022-07-29T12:08:21;100284.44;;;26.56;43.17
32131;BME280;18639;50.716;7.086;2022-07-29T12:10:48;100277.53;;;26.55;42.94
32131;BME280;18639;50.716;7.086;2022-07-29T12:13:16;100289.16;;;26.80;43.29
32131;BME280;18639;50.716;7.086;2022-07-29T12:15:42;100284.84;;;26.86;41.58
32131;BME280;18639;50.716;7.086;2022-07-29T12:18:20;100292.00;;;26.85;41.20
32131;BME280;18639;50.716;7.086;2022-07-29T12:20:47;100282.63;;;26.89;41.27
32131;BME280;18639;50.716;7.086;2022-07-29T12:23:13;100286.50;;;26.93;41.12
32131;BME280;18639;50.716;7.086;2022-07-29T12:25:41;100287.50;;;27.05;40.79
32131;BME280;18639;50.716;7.086;2022-07-29T12:28:11;100266.28;;;26.86;41.72
32131;BME280;18639;50.716;7.086;2022-07-29T12:30:39;100278.75;;;26.85;40.51
32131;BME280;18639;50.716;7.086;2022-07-29T12:33:12;100280.38;;;26.73;40.12
32131;BME280;18639;50.716;7.086;2022-07-29T12:35:38;100273.47;;;26.59;40.00
32131;BME280;18639;50.716;7.086;2022-07-29T12:38:05;100272.84;;;26.57;41.15
32131;BME280;18639;50.716;7.086;2022-07-29T12:40:30;100279.19;;;26.49;42.19
32131;BME280;18639;50.716;7.086;2022-07-29T12:43:10;100277.53;;;26.61;41.07
32131;BME280;18639;50.716;7.086;2022-07-29T12:45:40;100274.25;;;26.66;39.93
32131;BME280;18639;50.716;7.086;2022-07-29T12:48:06;100277.53;;;26.55;40.99
32131;BME280;18639;50.716;7.086;2022-07-29T12:50:34;100278.94;;;26.57;41.55
32131;BME280;18639;50.716;7.086;2022-07-29T12:53:10;100275.91;;;26.54;40.69
32131;BME280;18639;50.716;7.086;2022-07-29T12:55:42;100268.16;;;26.52;41.84
32131;BME280;18639;50.716;7.086;2022-07-29T12:58:09;100270.19;;;26.50;42.16
32131;BME280;18639;50.716;7.086;2022-07-29T13:00:34;100272.84;;;26.63;41.71
32131;BME280;18639;50.716;7.086;2022-07-29T13:03:00;100254.47;;;26.55;42.31
32131;BME280;18639;50.716;7.086;2022-07-29T13:05:44;100265.91;;;26.62;42.10
32131;BME280;18639;50.716;7.086;2022-07-29T13:08:14;100255.69;;;26.66;40.84
32131;BME280;18639;50.716;7.086;2022-07-29T13:10:40;100269.78;;;26.60;42.10
32131;BME280;18639;50.716;7.086;2022-07-29T13:13:11;100272.25;;;26.55;41.73
32131;BME280;18639;50.716;7.086;2022-07-29T13:15:38;100271.63;;;26.53;41.90
32131;BME280;18639;50.716;7.086;2022-07-29T13:18:05;100264.09;;;26.50;41.21
32131;BME280;18639;50.716;7.086;2022-07-29T13:20:50;100254.28;;;26.44;42.55
32131;BME280;18639;50.716;7.086;2022-07-29T13:23:15;100272.84;;;26.57;41.95
32131;BME280;18639;50.716;7.086;2022-07-29T13:25:41;100262.84;;;26.52;41.53
32131;BME280;18639;50.716;7.086;2022-07-29T13:28:06;100271.59;;;26.66;41.01
32131;BME280;18639;50.716;7.086;2022-07-29T13:30:31;100262.44;;;26.55;41.40
32131;BME280;18639;50.716;7.086;2022-07-29T13:32:57;100240.63;;;26.33;40.91
32131;BME280;18639;50.716;7.086;2022-07-29T13:35:22;100251.00;;;26.28;41.34
32131;BME280;18639;50.716;7.086;2022-07-29T13:37:47;100268.13;;;26.26;41.41
32131;BME280;18639;50.716;7.086;2022-07-29T13:40:13;100255.47;;;26.15;42.25
32131;BME280;18639;50.716;7.086;2022-07-29T13:42:39;100246.69;;;26.08;42.73
32131;BME280;18639;50.716;7.086;2022-07-29T13:45:05;100263.03;;;26.24;42.42
32131;BME280;18639;50.716;7.086;2022-07-29T13:47:31;100256.47;;;26.14;42.56
32131;BME280;18639;50.716;7.086;2022-07-29T13:49:57;100269.72;;;26.20;43.40
32131;BME280;18639;50.716;7.086;2022-07-29T13:52:22;100267.28;;;26.19;43.02
32131;BME280;18639;50.716;7.086;2022-07-29T13:54:48;100256.69;;;26.06;43.41